createdAt,value
2022-11-03T00:02:59.722Z,10.70
2022-11-03T00:06:12.581Z,10.74
2022-11-03T00:09:27.370Z,10.72
2022-11-03T00:12:39.913Z,10.68
2022-11-03T00:15:57.399Z,10.66
2022-11-03T00:19:10.968Z,10.66
2022-11-03T00:22:23.355Z,10.65
2022-11-03T00:25:35.702Z,10.62
2022-11-03T00:28:50.470Z,10.66
2022-11-03T00:32:02.901Z,10.61
2022-11-03T00:35:16.055Z,10.62
2022-11-03T00:38:28.708Z,10.62
2022-11-03T00:41:41.769Z,10.64
2022-11-03T00:44:54.285Z,10.56
2022-11-03T00:48:21.030Z,10.42
2022-11-03T00:51:34.946Z,10.43
2022-11-03T00:54:51.320Z,10.39
2022-11-03T00:58:02.413Z,10.20
2022-11-03T01:01:17.621Z,10.24
2022-11-03T01:04:44.405Z,10.21
2022-11-03T01:07:56.796Z,10.15
2022-11-03T01:11:30.988Z,10.00
2022-11-03T01:14:46.112Z,10.13
2022-11-03T01:17:58.836Z,10.15
2022-11-03T01:21:11.864Z,10.17
2022-11-03T01:24:24.477Z,10.16
2022-11-03T01:27:37.759Z,10.15
2022-11-03T01:30:50.123Z,10.12
2022-11-03T01:34:03.506Z,10.05
2022-11-03T01:37:16.125Z,10.16
2022-11-03T01:40:29.198Z,10.17
2022-11-03T01:43:43.873Z,10.15
2022-11-03T01:47:00.781Z,10.16
2022-11-03T01:50:16.896Z,10.20
2022-11-03T01:53:30.160Z,10.15
2022-11-03T01:56:46.788Z,10.12
2022-11-03T02:00:00.566Z,10.10
2022-11-03T02:03:13.738Z,10.07
2022-11-03T02:06:28.616Z,9.97
2022-11-03T02:09:41.100Z,10.00
2022-11-03T02:12:54.423Z,9.91
2022-11-03T02:16:08.210Z,9.96
2022-11-03T02:19:26.548Z,9.95
2022-11-03T02:23:13.822Z,9.93
2022-11-03T02:26:26.602Z,9.87
2022-11-03T02:29:39.037Z,9.92
2022-11-03T02:33:00.461Z,9.89
2022-11-03T02:36:18.115Z,9.90
2022-11-03T02:39:35.207Z,9.91
2022-11-03T02:42:46.888Z,9.89
2022-11-03T02:46:01.644Z,9.63
2022-11-03T02:49:13.850Z,9.84
2022-11-03T02:52:47.205Z,9.86
2022-11-03T02:56:06.403Z,9.85
2022-11-03T02:59:22.698Z,9.81
2022-11-03T03:02:39.689Z,9.78
2022-11-03T03:05:54.391Z,9.71
2022-11-03T03:09:11.306Z,9.66
2022-11-03T03:12:26.348Z,9.50
2022-11-03T03:15:46.174Z,9.57
2022-11-03T03:19:04.419Z,9.57
2022-11-03T03:22:23.873Z,9.52
2022-11-03T03:25:40.963Z,9.44
2022-11-03T03:28:54.102Z,9.42
2022-11-03T03:32:11.070Z,9.37
2022-11-03T03:35:24.142Z,9.39
2022-11-03T03:38:41.695Z,9.43
2022-11-03T03:41:55.536Z,9.43
2022-11-03T03:45:10.546Z,9.40
2022-11-03T03:48:23.545Z,9.38
2022-11-03T03:51:38.403Z,9.39
2022-11-03T03:54:51.112Z,9.33
2022-11-03T03:58:03.431Z,9.31
2022-11-03T04:01:19.033Z,9.28
2022-11-03T04:04:31.970Z,9.21
2022-11-03T04:07:53.229Z,9.17
2022-11-03T04:11:19.853Z,9.16
2022-11-03T04:14:46.269Z,9.15
2022-11-03T04:18:12.999Z,9.11
2022-11-03T04:21:39.624Z,9.06
2022-11-03T04:24:53.746Z,9.03
2022-11-03T04:28:06.641Z,9.00
2022-11-03T04:31:21.601Z,8.96
2022-11-03T04:34:34.157Z,8.75
2022-11-03T04:37:47.862Z,8.80
2022-11-03T04:41:03.522Z,8.63
2022-11-03T04:44:21.009Z,8.45
2022-11-03T04:47:34.601Z,8.33
2022-11-03T04:50:49.701Z,8.07
2022-11-03T04:54:06.471Z,8.06
2022-11-03T04:57:19.393Z,7.95
2022-11-03T05:00:31.802Z,7.85
2022-11-03T05:03:45.926Z,7.73
2022-11-03T05:06:59.478Z,7.67
2022-11-03T05:10:15.247Z,7.61
2022-11-03T05:13:30.572Z,7.54
2022-11-03T05:16:42.942Z,7.45
2022-11-03T05:19:57.776Z,7.46
2022-11-03T05:23:10.975Z,7.33
2022-11-03T05:26:29.209Z,7.18
2022-11-03T05:29:44.449Z,7.16
2022-11-03T05:32:56.874Z,7.13
2022-11-03T05:36:17.452Z,7.08
2022-11-03T05:39:39.466Z,6.98
2022-11-03T05:42:54.022Z,6.98
2022-11-03T05:46:09.450Z,7.05
2022-11-03T05:49:22.116Z,7.12
2022-11-03T05:52:35.323Z,7.13
2022-11-03T05:55:48.959Z,7.11
2022-11-03T05:59:03.178Z,7.11
2022-11-03T06:02:24.222Z,7.11
2022-11-03T06:05:38.875Z,7.20
2022-11-03T06:08:51.419Z,7.19
2022-11-03T06:12:07.013Z,7.15
2022-11-03T06:15:33.997Z,7.30
2022-11-03T06:18:46.661Z,7.27
2022-11-03T06:22:01.878Z,7.40
2022-11-03T06:25:24.034Z,7.42
2022-11-03T06:28:41.145Z,7.44
2022-11-03T06:31:54.200Z,7.44
2022-11-03T06:35:06.970Z,7.46
2022-11-03T06:38:25.974Z,7.42
2022-11-03T06:41:42.138Z,7.40
2022-11-03T06:44:57.144Z,7.40
2022-11-03T06:48:16.464Z,7.47
2022-11-03T06:51:31.464Z,7.50
2022-11-03T06:54:43.498Z,7.56
2022-11-03T06:57:59.909Z,7.64
2022-11-03T07:01:21.140Z,7.74
2022-11-03T07:04:34.709Z,7.92
2022-11-03T07:07:46.930Z,8.14
2022-11-03T07:11:11.348Z,8.44
2022-11-03T07:14:27.809Z,8.98
2022-11-03T07:17:40.248Z,9.77
2022-11-03T07:20:53.431Z,10.00
2022-11-03T07:24:09.731Z,10.09
2022-11-03T07:27:28.474Z,10.11
2022-11-03T07:30:42.607Z,10.01
2022-11-03T07:33:54.835Z,9.97
2022-11-03T07:37:08.055Z,10.01
2022-11-03T07:40:25.993Z,10.17
2022-11-03T07:43:40.907Z,10.24
2022-11-03T07:46:53.944Z,10.28
2022-11-03T07:50:06.175Z,10.64
2022-11-03T07:53:26.223Z,11.12
2022-11-03T07:56:43.786Z,11.70
2022-11-03T07:59:58.764Z,12.14
2022-11-03T08:03:14.801Z,12.79
2022-11-03T08:06:26.973Z,13.25
2022-11-03T08:09:39.184Z,13.87
2022-11-03T08:12:51.311Z,14.58
2022-11-03T08:16:03.661Z,15.26
2022-11-03T08:19:15.866Z,15.84
2022-11-03T08:22:27.925Z,16.48
2022-11-03T08:25:40.156Z,16.85
2022-11-03T08:28:52.304Z,17.04
2022-11-03T08:32:04.793Z,16.94
2022-11-03T08:35:17.535Z,17.01
2022-11-03T08:38:29.609Z,16.21
2022-11-03T08:41:41.784Z,16.11
2022-11-03T08:44:54.004Z,16.72
2022-11-03T08:48:06.292Z,17.30
2022-11-03T08:51:19.186Z,18.09
2022-11-03T08:54:31.376Z,17.90
2022-11-03T08:57:43.564Z,18.49
2022-11-03T09:00:55.887Z,18.15
2022-11-03T09:04:08.683Z,18.80
2022-11-03T09:07:21.196Z,18.72
2022-11-03T09:10:36.916Z,18.77
2022-11-03T09:13:48.781Z,18.42
2022-11-03T09:20:15.292Z,17.03
2022-11-03T09:23:27.463Z,16.64
2022-11-03T09:26:39.810Z,16.37
2022-11-03T09:30:12.074Z,16.58
2022-11-03T09:33:06.268Z,16.56
2022-11-03T09:36:18.609Z,16.56
2022-11-03T09:39:30.892Z,16.43
2022-11-03T09:42:44.923Z,16.26
2022-11-03T09:45:57.164Z,16.15
2022-11-03T09:49:10.991Z,15.93
2022-11-03T09:52:27.430Z,15.87
2022-11-03T09:55:43.356Z,15.84
2022-11-03T09:58:56.003Z,15.85
2022-11-03T10:02:08.235Z,15.77
2022-11-03T10:05:25.499Z,15.61
2022-11-03T10:08:41.959Z,15.42
2022-11-03T10:11:55.480Z,15.18
2022-11-03T10:15:08.024Z,15.27
2022-11-03T10:18:21.008Z,15.29
2022-11-03T10:21:38.069Z,15.27
2022-11-03T10:24:50.131Z,15.65
2022-11-03T10:28:27.381Z,15.90
2022-11-03T10:31:45.056Z,15.88
2022-11-03T10:34:57.184Z,15.99
2022-11-03T10:38:31.690Z,15.91
2022-11-03T10:41:43.784Z,16.30
2022-11-03T10:44:58.397Z,16.65
2022-11-03T10:48:13.769Z,16.67
2022-11-03T10:51:26.079Z,16.83
2022-11-03T10:54:40.575Z,16.72
2022-11-03T10:57:55.465Z,16.75
2022-11-03T11:01:07.968Z,17.30
2022-11-03T11:04:23.686Z,17.32
2022-11-03T11:07:40.779Z,17.55
2022-11-03T11:10:53.863Z,17.68
2022-11-03T11:17:53.574Z,18.01
2022-11-03T11:21:07.545Z,18.34
2022-11-03T11:24:20.657Z,18.32
2022-11-03T11:28:03.048Z,18.45
2022-11-03T11:31:36.787Z,18.25
2022-11-03T11:34:48.927Z,18.59
2022-11-03T11:38:01.388Z,18.46
2022-11-03T11:41:14.233Z,18.18
2022-11-03T11:45:07.196Z,18.41
2022-11-03T11:48:25.511Z,18.18
2022-11-03T11:51:41.616Z,18.07
2022-11-03T11:54:54.027Z,18.04
2022-11-03T11:58:08.450Z,17.77
2022-11-03T12:01:34.202Z,17.45
2022-11-03T12:04:48.684Z,17.48
2022-11-03T12:08:01.553Z,17.43
2022-11-03T12:11:16.812Z,17.54
2022-11-03T12:14:38.936Z,17.34
2022-11-03T12:17:51.553Z,17.54
2022-11-03T12:21:03.897Z,17.26
2022-11-03T12:24:45.938Z,17.26
2022-11-03T12:27:58.268Z,17.16
2022-11-03T12:31:10.985Z,17.08
2022-11-03T12:34:24.135Z,16.95
2022-11-03T12:37:36.336Z,17.00
2022-11-03T12:40:48.669Z,16.97
2022-11-03T12:44:01.255Z,16.83
2022-11-03T12:50:40.648Z,16.52
2022-11-03T12:53:53.371Z,16.31
2022-11-03T12:57:05.650Z,16.38
2022-11-03T13:00:20.906Z,16.27
2022-11-03T13:03:34.130Z,16.17
2022-11-03T13:06:46.469Z,16.09
2022-11-03T13:09:58.707Z,16.01
2022-11-03T13:13:11.144Z,15.88
2022-11-03T13:16:23.356Z,15.77
2022-11-03T13:19:35.730Z,15.79
2022-11-03T13:22:48.661Z,15.84
2022-11-03T13:26:01.453Z,15.81
2022-11-03T13:29:13.903Z,15.74
2022-11-03T13:32:26.203Z,15.70
2022-11-03T13:35:38.435Z,15.66
2022-11-03T13:38:52.519Z,15.65
2022-11-03T13:42:04.884Z,15.52
2022-11-03T13:45:18.629Z,15.46
2022-11-03T13:49:33.146Z,15.33
2022-11-03T13:51:45.249Z,15.27
2022-11-03T14:01:27.804Z,15.07
2022-11-03T14:07:53.839Z,14.92
2022-11-03T14:11:08.754Z,14.85
2022-11-03T14:14:21.265Z,14.73
2022-11-03T14:17:36.181Z,14.67
2022-11-03T14:23:55.678Z,14.46
2022-11-03T14:27:09.016Z,14.40
2022-11-03T14:30:22.712Z,14.30
2022-11-03T14:33:35.720Z,14.26
2022-11-03T14:36:48.507Z,14.18
2022-11-03T14:40:01.137Z,14.06
2022-11-03T14:43:13.481Z,13.99
2022-11-03T14:46:26.017Z,13.84
2022-11-03T14:49:39.872Z,13.75
2022-11-03T14:52:55.000Z,13.62
2022-11-03T14:56:07.222Z,13.47
2022-11-03T14:59:19.706Z,13.41
2022-11-03T15:02:32.629Z,13.19
2022-11-03T15:05:53.119Z,13.10
2022-11-03T15:09:05.422Z,12.98
2022-11-03T15:12:17.856Z,12.86
2022-11-03T15:15:30.176Z,12.72
2022-11-03T15:18:44.159Z,12.57
2022-11-03T15:21:56.322Z,12.38
2022-11-03T15:28:24.719Z,12.18
2022-11-03T15:31:37.259Z,12.10
2022-11-03T15:34:49.491Z,12.02
2022-11-03T15:38:02.752Z,12.04
2022-11-03T15:41:21.326Z,12.00
2022-11-03T15:44:34.736Z,11.90
2022-11-03T15:47:47.175Z,11.86
2022-11-03T15:50:59.359Z,11.79
2022-11-03T15:54:12.214Z,11.73
2022-11-03T15:57:24.566Z,11.65
2022-11-03T16:00:36.919Z,11.52
2022-11-03T16:03:49.117Z,11.44
2022-11-03T16:07:07.757Z,11.44
2022-11-03T16:10:17.227Z,11.42
2022-11-03T16:13:29.882Z,11.30
2022-11-03T16:16:42.437Z,11.32
2022-11-03T16:19:55.397Z,11.30
2022-11-03T16:23:07.787Z,11.23
2022-11-03T16:26:22.249Z,11.19
2022-11-03T16:29:35.017Z,11.08
2022-11-03T16:32:47.262Z,11.04
2022-11-03T16:35:59.472Z,10.98
2022-11-03T16:39:11.978Z,10.99
2022-11-03T16:42:24.368Z,10.97
2022-11-03T16:45:38.110Z,10.71
2022-11-03T16:48:51.139Z,10.83
2022-11-03T16:52:03.391Z,10.80
2022-11-03T16:55:17.201Z,10.88
2022-11-03T16:58:30.200Z,10.80
2022-11-03T17:01:42.829Z,10.53
2022-11-03T17:04:55.226Z,10.48
2022-11-03T17:08:20.489Z,10.41
2022-11-03T17:11:25.553Z,10.37
2022-11-03T17:14:38.094Z,10.34
2022-11-03T17:17:50.629Z,10.29
2022-11-03T17:21:03.109Z,10.29
2022-11-03T17:24:16.712Z,10.25
2022-11-03T17:27:32.951Z,10.27
2022-11-03T17:30:48.044Z,10.15
2022-11-03T17:34:01.472Z,10.09
2022-11-03T17:37:14.043Z,10.09
2022-11-03T17:40:29.457Z,10.02
2022-11-03T17:43:44.959Z,9.96
2022-11-03T17:46:57.412Z,9.94
2022-11-03T17:50:10.537Z,9.98
2022-11-03T17:53:28.945Z,9.83
2022-11-03T17:56:42.421Z,9.77
2022-11-03T17:59:57.981Z,9.76
2022-11-03T18:03:13.218Z,9.63
2022-11-03T18:06:27.001Z,9.62
2022-11-03T18:09:39.278Z,9.54
2022-11-03T18:13:09.801Z,9.48
2022-11-03T18:16:22.980Z,9.46
2022-11-03T18:19:36.662Z,9.43
2022-11-03T18:22:49.626Z,9.37
2022-11-03T18:26:02.697Z,9.38
2022-11-03T18:29:15.857Z,9.31
2022-11-03T18:32:31.837Z,9.22
2022-11-03T18:35:42.962Z,9.26
2022-11-03T18:38:57.799Z,9.21
2022-11-03T18:42:13.174Z,9.41
2022-11-03T18:45:26.531Z,9.46
2022-11-03T18:48:39.132Z,9.40
2022-11-03T18:52:00.928Z,9.44
2022-11-03T18:55:13.226Z,9.53
2022-11-03T18:58:28.987Z,9.41
2022-11-03T19:01:42.037Z,9.40
2022-11-03T19:04:46.981Z,9.21
2022-11-03T19:07:59.709Z,9.34
2022-11-03T19:11:12.245Z,9.39
2022-11-03T19:14:29.824Z,9.38
2022-11-03T19:17:43.937Z,9.41
2022-11-03T19:20:56.329Z,9.32
2022-11-03T19:24:09.014Z,9.26
2022-11-03T19:30:36.181Z,9.26
2022-11-03T19:33:48.963Z,9.21
2022-11-03T19:37:02.835Z,9.21
2022-11-03T19:40:22.085Z,9.21
2022-11-03T19:43:35.212Z,9.26
2022-11-03T19:46:48.765Z,9.23
2022-11-03T19:50:01.757Z,9.20
2022-11-03T19:53:17.674Z,9.17
2022-11-03T19:56:30.726Z,9.03
2022-11-03T19:59:43.389Z,8.88
2022-11-03T20:02:55.750Z,8.88
2022-11-03T20:06:08.974Z,9.19
2022-11-03T20:09:24.851Z,9.19
2022-11-03T20:12:37.566Z,9.25
2022-11-03T20:15:51.287Z,9.26
2022-11-03T20:19:05.399Z,9.28
2022-11-03T20:22:23.964Z,9.28
2022-11-03T20:25:39.479Z,9.40
2022-11-03T20:28:53.101Z,9.26
2022-11-03T20:32:05.946Z,9.04
2022-11-03T20:35:24.175Z,9.23
2022-11-03T20:38:37.834Z,9.32
2022-11-03T20:41:55.566Z,9.37
2022-11-03T20:45:13.655Z,9.35
2022-11-03T20:48:26.119Z,9.20
2022-11-03T20:51:43.359Z,9.29
2022-11-03T20:54:54.815Z,9.24
2022-11-03T20:58:07.381Z,9.16
2022-11-03T21:01:27.212Z,9.20
2022-11-03T21:04:41.074Z,8.84
2022-11-03T21:07:54.989Z,9.13
2022-11-03T21:11:17.949Z,9.02
2022-11-03T21:14:33.956Z,8.98
2022-11-03T21:18:00.726Z,8.61
2022-11-03T21:21:19.663Z,8.94
2022-11-03T21:24:28.942Z,8.93
2022-11-03T21:27:42.080Z,8.91
2022-11-03T21:30:57.912Z,8.91
2022-11-03T21:34:10.428Z,8.90
2022-11-03T21:37:23.719Z,8.90
2022-11-03T21:40:36.548Z,8.88
2022-11-03T21:44:03.311Z,8.90
2022-11-03T21:47:17.073Z,8.84
2022-11-03T21:50:29.750Z,8.81
2022-11-03T21:53:42.203Z,8.74
2022-11-03T21:56:54.743Z,8.86
2022-11-03T22:00:07.215Z,8.75
2022-11-03T22:03:19.777Z,8.64
2022-11-03T22:06:32.701Z,8.73
2022-11-03T22:09:45.149Z,8.74
2022-11-03T22:12:57.543Z,8.70
2022-11-03T22:16:24.740Z,8.64
2022-11-03T22:19:51.380Z,8.64
2022-11-03T22:23:20.021Z,8.67
2022-11-03T22:26:47.152Z,8.63
2022-11-03T22:30:14.147Z,8.62
2022-11-03T22:33:26.755Z,8.59
2022-11-03T22:36:38.918Z,8.58
2022-11-03T22:40:05.636Z,8.62
2022-11-03T22:43:32.132Z,8.59
2022-11-03T22:46:44.475Z,8.64
2022-11-03T22:49:56.656Z,8.67
2022-11-03T22:53:11.362Z,8.62
2022-11-03T22:56:24.591Z,8.61
2022-11-03T22:59:37.122Z,8.56
2022-11-03T23:02:49.697Z,8.56
2022-11-03T23:06:05.110Z,8.54
2022-11-03T23:09:17.817Z,8.53
2022-11-03T23:12:30.919Z,8.50
2022-11-03T23:15:43.831Z,8.48
2022-11-03T23:19:10.267Z,8.44
2022-11-03T23:22:22.471Z,8.40
2022-11-03T23:25:34.972Z,8.41
2022-11-03T23:28:47.713Z,8.36
2022-11-03T23:32:00.743Z,8.31
2022-11-03T23:35:15.096Z,8.23
2022-11-03T23:38:27.307Z,8.25
2022-11-03T23:41:40.122Z,8.25
2022-11-03T23:45:06.632Z,8.24
2022-11-03T23:48:33.409Z,8.26
2022-11-03T23:51:46.314Z,8.21
2022-11-03T23:54:58.433Z,8.21
2022-11-03T23:58:23.024Z,8.22
